Time;durP1;ratioP1;P1;durP2;ratioP2;P2;SDS_P1;SDS_P2;PMS_P1;PMS_P2;Temp;Humidity;BMP_temperature;BMP_pressure;BME280_temperature;BME280_humidity;BME280_pressure;Samples;Min_cycle;Max_cycle;Signal;HPM_P1;HPM_P2
2023/07/25 00:00:35;;;;;;;7.37;3.00;;;;;;;;;;5079963;28;20508;-63
2023/07/25 00:03:01;;;;;;;9.60;2.93;;;;;;;;;;5079359;28;20452;-63
2023/07/25 00:05:28;;;;;;;7.03;3.83;;;;;;;;;;5078634;28;20472;-63
2023/07/25 00:07:54;;;;;;;7.77;3.27;;;;;;;;;;5078821;28;20444;-63
2023/07/25 00:10:21;;;;;;;6.47;2.70;;;;;;;;;;5079484;28;20476;-63
2023/07/25 00:12:52;;;;;;;5.03;2.43;;;;;;;;;;5079195;28;20448;-63
2023/07/25 00:15:19;;;;;;;4.33;3.00;;;;;;;;;;5079399;28;20697;-63
2023/07/25 00:17:46;;;;;;;3.10;2.50;;;;;;;;;;5079145;28;20479;-63
2023/07/25 00:20:13;;;;;;;7.33;3.00;;;;;;;;;;5079890;28;20490;-63
2023/07/25 00:22:39;;;;;;;7.80;3.43;;;;;;;;;;5078736;28;20475;-63
2023/07/25 00:25:06;;;;;;;4.67;3.20;;;;;;;;;;5079536;28;21086;-63
2023/07/25 00:27:32;;;;;;;5.03;2.60;;;;;;;;;;5079320;28;20452;-63
2023/07/25 00:29:59;;;;;;;8.17;2.70;;;;;;;;;;5079509;28;20476;-63
2023/07/25 00:32:25;;;;;;;5.13;2.87;;;;;;;;;;5079519;28;20534;-63
2023/07/25 00:34:53;;;;;;;3.00;2.40;;;;;;;;;;5079053;28;20535;-63
2023/07/25 00:37:19;;;;;;;5.43;2.93;;;;;;;;;;5078474;28;20662;-63
2023/07/25 00:39:45;;;;;;;3.97;2.70;;;;;;;;;;5079684;28;20468;-63
2023/07/25 00:42:12;;;;;;;3.97;2.77;;;;;;;;;;5079022;28;20535;-63
2023/07/25 00:44:38;;;;;;;6.43;2.93;;;;;;;;;;5078866;28;20574;-63
2023/07/25 00:47:05;;;;;;;4.27;2.50;;;;;;;;;;5079153;28;20507;-63
2023/07/25 00:49:32;;;;;;;7.43;3.40;;;;;;;;;;5078813;28;20876;-63
2023/07/25 00:51:59;;;;;;;6.93;3.03;;;;;;;;;;5078544;28;20476;-63
2023/07/25 00:54:26;;;;;;;4.03;2.80;;;;;;;;;;5078619;28;20451;-63
2023/07/25 00:56:52;;;;;;;6.93;3.43;;;;;;;;;;5078793;28;20472;-63
2023/07/25 00:59:18;;;;;;;3.90;3.10;;;;;;;;;;5079247;28;20499;-63
2023/07/25 01:01:45;;;;;;;8.00;3.97;;;;;;;;;;5078627;28;20475;-63
2023/07/25 01:04:11;;;;;;;9.90;3.10;;;;;;;;;;5078683;28;20507;-63
2023/07/25 01:06:38;;;;;;;5.80;4.10;;;;;;;;;;5077336;28;20483;-63
2023/07/25 01:09:06;;;;;;;10.93;3.60;;;;;;;;;;5079309;28;20926;-63
2023/07/25 01:11:32;;;;;;;10.03;3.80;;;;;;;;;;5079489;28;20509;-63
2023/07/25 01:13:59;;;;;;;13.10;4.07;;;;;;;;;;5081778;28;20730;-63
2023/07/25 01:16:26;;;;;;;7.00;3.60;;;;;;;;;;5082679;28;20533;-63
2023/07/25 01:18:53;;;;;;;8.47;4.10;;;;;;;;;;5082444;28;20479;-63
2023/07/25 01:21:20;;;;;;;7.80;4.10;;;;;;;;;;5081909;28;20527;-61
2023/07/25 01:23:46;;;;;;;11.13;4.10;;;;;;;;;;5082164;28;20562;-61
2023/07/25 01:26:16;;;;;;;10.53;4.77;;;;;;;;;;5082547;28;20440;-61
2023/07/25 01:28:43;;;;;;;5.43;4.27;;;;;;;;;;5081776;28;21007;-60
2023/07/25 01:31:09;;;;;;;7.20;4.30;;;;;;;;;;5082340;28;20494;-61
2023/07/25 01:33:36;;;;;;;6.13;4.10;;;;;;;;;;5081753;28;20495;-60
2023/07/25 01:36:03;;;;;;;8.27;4.70;;;;;;;;;;5081435;28;20460;-61
2023/07/25 01:38:29;;;;;;;12.73;4.80;;;;;;;;;;5081950;28;20525;-61
2023/07/25 01:40:55;;;;;;;5.30;4.67;;;;;;;;;;5082360;28;20897;-63
2023/07/25 01:43:23;;;;;;;7.77;4.80;;;;;;;;;;5082042;28;20472;-63
2023/07/25 01:45:49;;;;;;;13.73;5.67;;;;;;;;;;5082270;28;20507;-63
2023/07/25 01:48:16;;;;;;;9.67;5.70;;;;;;;;;;5082087;28;20476;-63
2023/07/25 01:50:42;;;;;;;7.87;5.83;;;;;;;;;;5081409;28;20478;-63
2023/07/25 01:53:08;;;;;;;6.67;5.23;;;;;;;;;;5081852;28;20447;-63
2023/07/25 01:55:37;;;;;;;7.87;5.43;;;;;;;;;;5081971;28;20468;-63
2023/07/25 01:58:03;;;;;;;10.03;5.30;;;;;;;;;;5081977;28;20486;-63
2023/07/25 02:00:31;;;;;;;10.40;6.23;;;;;;;;;;5082293;28;20895;-63
2023/07/25 02:02:57;;;;;;;10.93;5.63;;;;;;;;;;5081694;28;20452;-63
2023/07/25 02:05:24;;;;;;;9.47;5.57;;;;;;;;;;5081210;28;20494;-63
2023/07/25 02:07:50;;;;;;;10.93;5.50;;;;;;;;;;5080686;28;20527;-63
2023/07/25 02:10:16;;;;;;;7.27;5.10;;;;;;;;;;5081512;28;20475;-63
2023/07/25 02:12:43;;;;;;;6.90;5.30;;;;;;;;;;5081275;28;20634;-63
2023/07/25 02:15:09;;;;;;;8.77;5.80;;;;;;;;;;5081580;28;20487;-63
2023/07/25 02:17:37;;;;;;;10.70;5.63;;;;;;;;;;5081677;28;20492;-63
2023/07/25 02:20:04;;;;;;;7.90;5.53;;;;;;;;;;5081632;28;20527;-63
2023/07/25 02:22:30;;;;;;;8.30;6.03;;;;;;;;;;5080496;28;20599;-63
2023/07/25 02:24:57;;;;;;;10.20;5.87;;;;;;;;;;5080490;28;20519;-63
2023/07/25 02:27:23;;;;;;;10.13;5.57;;;;;;;;;;5081468;28;20472;-63
2023/07/25 02:29:49;;;;;;;11.27;6.37;;;;;;;;;;5080953;28;20527;-63
2023/07/25 02:32:16;;;;;;;11.77;6.07;;;;;;;;;;5081104;28;20515;-63
2023/07/25 02:34:44;;;;;;;8.60;5.90;;;;;;;;;;5080844;28;20461;-63
2023/07/25 02:37:10;;;;;;;11.67;6.03;;;;;;;;;;5079900;28;20499;-63
2023/07/25 02:39:36;;;;;;;9.80;5.73;;;;;;;;;;5081172;28;20472;-63
2023/07/25 02:42:03;;;;;;;12.53;7.13;;;;;;;;;;5080634;28;20488;-63
2023/07/25 02:44:29;;;;;;;9.80;6.00;;;;;;;;;;5080563;28;20562;-63
2023/07/25 02:46:55;;;;;;;8.03;6.50;;;;;;;;;;5080978;28;21040;-63
2023/07/25 02:49:22;;;;;;;9.83;6.97;;;;;;;;;;5080764;28;20456;-63
2023/07/25 02:51:51;;;;;;;7.60;6.47;;;;;;;;;;5080202;28;20570;-63
2023/07/25 02:54:17;;;;;;;11.67;7.13;;;;;;;;;;5080600;28;20448;-63
2023/07/25 02:56:43;;;;;;;11.47;7.80;;;;;;;;;;5080254;28;20505;-63
2023/07/25 02:59:10;;;;;;;8.97;6.60;;;;;;;;;;5080719;28;20472;-63
2023/07/25 03:01:36;;;;;;;9.90;7.37;;;;;;;;;;5080566;28;20829;-63
2023/07/25 03:04:03;;;;;;;14.13;7.33;;;;;;;;;;5080434;28;20460;-63
2023/07/25 03:06:29;;;;;;;10.83;7.60;;;;;;;;;;5079316;28;21100;-63
2023/07/25 03:08:57;;;;;;;7.80;7.03;;;;;;;;;;5080378;28;20450;-63
2023/07/25 03:11:23;;;;;;;9.40;7.50;;;;;;;;;;5080131;28;20491;-63
2023/07/25 03:13:50;;;;;;;13.20;8.90;;;;;;;;;;5079917;28;20527;-63
2023/07/25 03:16:16;;;;;;;9.40;8.30;;;;;;;;;;5080613;28;20738;-63
2023/07/25 03:18:43;;;;;;;16.10;9.27;;;;;;;;;;5080559;28;20527;-63
2023/07/25 03:21:09;;;;;;;11.93;8.50;;;;;;;;;;5079904;28;20487;-63
2023/07/25 03:23:35;;;;;;;12.90;8.57;;;;;;;;;;5079992;28;20535;-63
2023/07/25 03:26:03;;;;;;;15.90;9.43;;;;;;;;;;5080152;28;20475;-63
2023/07/25 03:28:29;;;;;;;12.23;9.30;;;;;;;;;;5080295;28;20472;-63
2023/07/25 03:30:56;;;;;;;13.03;9.17;;;;;;;;;;5080495;28;20455;-60
2023/07/25 03:33:22;;;;;;;16.60;9.30;;;;;;;;;;5079727;28;20479;-60
2023/07/25 03:35:49;;;;;;;10.97;8.30;;;;;;;;;;5078644;28;20463;-60
2023/07/25 03:38:15;;;;;;;11.23;9.40;;;;;;;;;;5079809;28;20488;-60
2023/07/25 03:40:41;;;;;;;10.20;9.20;;;;;;;;;;5079950;28;20459;-63
2023/07/25 03:43:09;;;;;;;10.57;7.47;;;;;;;;;;5079996;28;20540;-61
2023/07/25 03:45:36;;;;;;;15.13;9.57;;;;;;;;;;5080050;28;20818;-61
2023/07/25 03:48:02;;;;;;;10.40;9.37;;;;;;;;;;5079430;28;20487;-61
2023/07/25 03:50:29;;;;;;;14.30;9.63;;;;;;;;;;5079991;28;20472;-61
2023/07/25 03:52:55;;;;;;;12.73;9.90;;;;;;;;;;5079267;28;20529;-60
2023/07/25 03:55:22;;;;;;;13.17;10.17;;;;;;;;;;5078437;28;20483;-61
2023/07/25 03:57:48;;;;;;;12.60;9.43;;;;;;;;;;5079627;28;20480;-61
2023/07/25 04:00:16;;;;;;;10.13;9.03;;;;;;;;;;5079879;28;20459;-61
2023/07/25 04:02:43;;;;;;;11.43;8.60;;;;;;;;;;5078906;28;20523;-61
2023/07/25 04:05:09;;;;;;;12.00;9.30;;;;;;;;;;5079175;28;20563;-61
2023/07/25 04:07:35;;;;;;;8.67;7.70;;;;;;;;;;5069222;28;20494;-61
2023/07/25 04:10:02;;;;;;;9.47;7.20;;;;;;;;;;5079508;28;20526;-61
2023/07/25 04:12:28;;;;;;;11.83;8.00;;;;;;;;;;5079233;28;20890;-61
2023/07/25 04:14:55;;;;;;;7.63;6.47;;;;;;;;;;5079185;28;20476;-61
2023/07/25 04:17:22;;;;;;;10.73;8.23;;;;;;;;;;5079306;28;20484;-61
2023/07/25 04:19:49;;;;;;;9.50;7.13;;;;;;;;;;5078614;28;20472;-61
2023/07/25 04:22:15;;;;;;;8.53;7.63;;;;;;;;;;5076433;28;20479;-61
2023/07/25 04:24:42;;;;;;;9.93;7.20;;;;;;;;;;5078496;28;20478;-61
2023/07/25 04:27:08;;;;;;;9.97;7.90;;;;;;;;;;5078589;28;20515;-61
2023/07/25 04:29:34;;;;;;;10.87;7.40;;;;;;;;;;5078019;28;20539;-61
2023/07/25 04:32:01;;;;;;;9.43;7.03;;;;;;;;;;5078395;28;20452;-61
2023/07/25 04:34:28;;;;;;;15.80;7.50;;;;;;;;;;5078177;28;21012;-61
2023/07/25 04:36:55;;;;;;;10.70;7.70;;;;;;;;;;5076850;28;20507;-61
2023/07/25 04:39:21;;;;;;;12.73;8.10;;;;;;;;;;5078622;28;20474;-61
2023/07/25 04:41:48;;;;;;;9.43;6.60;;;;;;;;;;5078863;28;20444;-63
2023/07/25 04:44:14;;;;;;;10.03;7.53;;;;;;;;;;5077742;28;20527;-63
2023/07/25 04:46:41;;;;;;;7.83;6.00;;;;;;;;;;5079707;28;20476;-63
2023/07/25 04:49:11;;;;;;;9.30;6.47;;;;;;;;;;5082592;28;20562;-63
2023/07/25 04:51:38;;;;;;;9.50;6.07;;;;;;;;;;5080043;28;20517;-63
2023/07/25 04:54:05;;;;;;;9.30;6.20;;;;;;;;;;5081991;28;20452;-63
2023/07/25 04:56:31;;;;;;;8.77;5.87;;;;;;;;;;5073981;28;20523;-63
2023/07/25 04:58:58;;;;;;;8.37;6.20;;;;;;;;;;5080547;28;20459;-63
2023/07/25 05:01:24;;;;;;;10.00;6.30;;;;;;;;;;5069191;28;20610;-63
2023/07/25 05:03:50;;;;;;;10.10;6.17;;;;;;;;;;5082331;28;20555;-64
2023/07/25 05:06:17;;;;;;;10.50;5.80;;;;;;;;;;5080397;28;20537;-62
2023/07/25 05:08:44;;;;;;;6.23;5.10;;;;;;;;;;5082262;28;20450;-62
2023/07/25 05:11:11;;;;;;;6.17;5.10;;;;;;;;;;5082121;28;20520;-62
2023/07/25 05:13:38;;;;;;;10.17;5.67;;;;;;;;;;5080984;28;20452;-62
2023/07/25 05:16:04;;;;;;;7.43;5.73;;;;;;;;;;5082253;28;20479;-61
2023/07/25 05:18:31;;;;;;;8.47;6.10;;;;;;;;;;5081877;28;20491;-62
2023/07/25 05:20:57;;;;;;;12.03;6.03;;;;;;;;;;5081082;28;20478;-61
2023/07/25 05:23:24;;;;;;;6.07;5.00;;;;;;;;;;5081665;28;20488;-61
2023/07/25 05:25:51;;;;;;;10.80;5.63;;;;;;;;;;5080168;28;20507;-61
2023/07/25 05:28:19;;;;;;;11.30;5.73;;;;;;;;;;5076693;28;20472;-61
2023/07/25 05:30:45;;;;;;;12.17;5.77;;;;;;;;;;5080346;28;20558;-62
2023/07/25 05:33:12;;;;;;;8.50;6.00;;;;;;;;;;5081808;28;20484;-62
2023/07/25 05:35:38;;;;;;;10.40;5.40;;;;;;;;;;5080697;28;20527;-61
2023/07/25 05:38:07;;;;;;;8.00;5.30;;;;;;;;;;5081057;28;20493;-62
2023/07/25 05:40:34;;;;;;;10.30;5.30;;;;;;;;;;5081820;28;20448;-63
2023/07/25 05:43:01;;;;;;;7.50;5.10;;;;;;;;;;5077084;28;20486;-61
2023/07/25 05:45:28;;;;;;;8.13;3.83;;;;;;;;;;5080035;28;20984;-61
2023/07/25 05:47:54;;;;;;;12.67;4.70;;;;;;;;;;5081263;28;20474;-61
2023/07/25 05:50:21;;;;;;;6.93;4.13;;;;;;;;;;5080555;28;20444;-62
2023/07/25 05:52:47;;;;;;;13.07;4.30;;;;;;;;;;5080668;28;20463;-62
2023/07/25 05:55:13;;;;;;;7.63;4.53;;;;;;;;;;5080849;28;20602;-63
2023/07/25 05:57:40;;;;;;;5.80;3.80;;;;;;;;;;5080155;28;20515;-62
2023/07/25 06:00:09;;;;;;;6.93;4.27;;;;;;;;;;5081090;28;20444;-63
2023/07/25 06:02:35;;;;;;;7.07;3.70;;;;;;;;;;5081208;28;20462;-63
2023/07/25 06:05:01;;;;;;;6.70;3.97;;;;;;;;;;5080409;28;20476;-62
2023/07/25 06:07:28;;;;;;;9.43;3.40;;;;;;;;;;5079584;28;20972;-62
2023/07/25 06:09:54;;;;;;;7.70;3.40;;;;;;;;;;5080987;28;20456;-62
2023/07/25 06:12:21;;;;;;;7.27;3.47;;;;;;;;;;5078817;28;20538;-62
2023/07/25 06:14:47;;;;;;;7.57;3.10;;;;;;;;;;5077651;28;20484;-62
2023/07/25 06:17:15;;;;;;;8.73;3.43;;;;;;;;;;5079623;28;20452;-62
2023/07/25 06:19:41;;;;;;;7.10;2.93;;;;;;;;;;5079722;28;20511;-62
2023/07/25 06:22:08;;;;;;;5.67;2.83;;;;;;;;;;5080008;28;20491;-62
2023/07/25 06:24:34;;;;;;;7.40;2.70;;;;;;;;;;5080177;28;20476;-62
2023/07/25 06:27:01;;;;;;;7.33;3.00;;;;;;;;;;5080006;28;20486;-62
2023/07/25 06:29:27;;;;;;;9.10;2.70;;;;;;;;;;5080224;28;20444;-62
2023/07/25 06:31:54;;;;;;;8.50;2.60;;;;;;;;;;5067254;28;20444;-62
2023/07/25 06:34:21;;;;;;;6.20;2.50;;;;;;;;;;5079272;28;20467;-62
2023/07/25 06:36:48;;;;;;;6.50;2.80;;;;;;;;;;5079520;28;20510;-62
2023/07/25 06:39:15;;;;;;;5.50;2.20;;;;;;;;;;5080235;28;20487;-62
2023/07/25 06:41:41;;;;;;;9.73;3.33;;;;;;;;;;5078148;28;20444;-62
2023/07/25 06:44:07;;;;;;;7.93;2.70;;;;;;;;;;5073747;28;20472;-62
2023/07/25 06:46:34;;;;;;;6.80;2.63;;;;;;;;;;5080193;28;20549;-62
2023/07/25 06:49:00;;;;;;;3.23;2.37;;;;;;;;;;5079338;28;20523;-62
2023/07/25 06:51:28;;;;;;;9.77;2.70;;;;;;;;;;5073946;28;20488;-63
2023/07/25 06:53:54;;;;;;;8.23;2.60;;;;;;;;;;5078609;28;20459;-62
2023/07/25 06:56:21;;;;;;;5.90;2.17;;;;;;;;;;5079508;28;21006;-61
2023/07/25 06:58:47;;;;;;;7.07;2.30;;;;;;;;;;5079968;28;20524;-62
2023/07/25 07:01:14;;;;;;;7.03;2.43;;;;;;;;;;5080296;28;20499;-62
2023/07/25 07:03:40;;;;;;;7.00;2.63;;;;;;;;;;5078740;28;20485;-62
2023/07/25 07:06:06;;;;;;;4.90;2.33;;;;;;;;;;5079052;28;20921;-62
2023/07/25 07:08:34;;;;;;;4.50;2.30;;;;;;;;;;5079753;28;20478;-62
2023/07/25 07:11:01;;;;;;;7.63;2.40;;;;;;;;;;5079032;28;20484;-62
2023/07/25 07:13:29;;;;;;;9.53;2.40;;;;;;;;;;5078615;28;20514;-64
2023/07/25 07:15:56;;;;;;;6.00;2.17;;;;;;;;;;5073166;28;20447;-63
2023/07/25 07:18:23;;;;;;;5.87;2.10;;;;;;;;;;5079001;28;20467;-63
2023/07/25 07:20:50;;;;;;;5.33;2.20;;;;;;;;;;5076399;28;20488;-62
2023/07/25 07:23:16;;;;;;;5.23;2.33;;;;;;;;;;5078396;28;20452;-62
2023/07/25 07:25:45;;;;;;;6.27;2.40;;;;;;;;;;5078744;28;20483;-62
2023/07/25 07:28:11;;;;;;;6.13;1.97;;;;;;;;;;5078975;28;20452;-62
2023/07/25 07:30:37;;;;;;;4.80;2.30;;;;;;;;;;5079053;28;20554;-62
2023/07/25 07:33:04;;;;;;;6.93;1.80;;;;;;;;;;5079165;28;20466;-62
2023/07/25 07:35:30;;;;;;;4.20;2.00;;;;;;;;;;5073879;28;20537;-63
2023/07/25 07:37:57;;;;;;;5.77;1.93;;;;;;;;;;5078089;28;20511;-62
2023/07/25 07:40:24;;;;;;;4.47;1.80;;;;;;;;;;5071381;28;20474;-62
2023/07/25 07:42:51;;;;;;;6.33;2.53;;;;;;;;;;5078039;28;21050;-63
2023/07/25 07:45:18;;;;;;;7.00;2.10;;;;;;;;;;5079125;28;20534;-62
2023/07/25 07:47:44;;;;;;;3.80;2.00;;;;;;;;;;5078864;28;20559;-62
2023/07/25 07:50:10;;;;;;;6.20;1.97;;;;;;;;;;5078632;28;20472;-62
2023/07/25 07:52:41;;;;;;;2.80;1.40;;;;;;;;;;5078384;28;20452;-62
2023/07/25 07:55:08;;;;;;;6.37;1.87;;;;;;;;;;5078535;28;20454;-63
2023/07/25 07:57:38;;;;;;;4.33;1.87;;;;;;;;;;5074236;28;20468;-63
2023/07/25 08:00:06;;;;;;;4.37;1.77;;;;;;;;;;5074555;28;20483;-62
2023/07/25 08:02:33;;;;;;;5.43;1.63;;;;;;;;;;5078418;28;20464;-62
2023/07/25 08:04:59;;;;;;;5.83;1.73;;;;;;;;;;5078483;28;20448;-62
2023/07/25 08:07:26;;;;;;;3.97;2.00;;;;;;;;;;5077146;28;20506;-62
2023/07/25 08:09:53;;;;;;;9.10;2.50;;;;;;;;;;5078708;28;20801;-62
2023/07/25 08:12:20;;;;;;;5.93;1.90;;;;;;;;;;5078211;28;20479;-61
2023/07/25 08:14:46;;;;;;;6.40;2.57;;;;;;;;;;5078272;28;20902;-62
2023/07/25 08:17:14;;;;;;;7.67;2.57;;;;;;;;;;5079042;28;20496;-61
2023/07/25 08:19:41;;;;;;;3.13;1.67;;;;;;;;;;5077315;28;20941;-61
2023/07/25 08:22:07;;;;;;;7.20;2.20;;;;;;;;;;5076940;28;20975;-62
2023/07/25 08:24:33;;;;;;;6.27;1.93;;;;;;;;;;5078425;28;20474;-62
2023/07/25 08:27:00;;;;;;;3.90;1.40;;;;;;;;;;5078365;28;20509;-62
2023/07/25 08:29:26;;;;;;;3.73;1.70;;;;;;;;;;5078922;28;20483;-62
2023/07/25 08:31:53;;;;;;;4.07;1.80;;;;;;;;;;5078421;28;20519;-62
2023/07/25 08:34:21;;;;;;;5.80;2.10;;;;;;;;;;5077823;28;20543;-62
2023/07/25 08:36:47;;;;;;;5.57;2.20;;;;;;;;;;5077516;28;20471;-62
2023/07/25 08:39:13;;;;;;;5.20;1.83;;;;;;;;;;5078650;28;21024;-62
2023/07/25 08:41:42;;;;;;;5.97;1.97;;;;;;;;;;5077031;28;20555;-62
2023/07/25 08:44:10;;;;;;;6.97;2.20;;;;;;;;;;5079321;28;20523;-62
2023/07/25 08:46:36;;;;;;;6.00;2.03;;;;;;;;;;5078803;28;20476;-61
2023/07/25 08:49:03;;;;;;;6.90;2.20;;;;;;;;;;5078004;28;20816;-62
2023/07/25 08:51:33;;;;;;;6.73;2.00;;;;;;;;;;5078445;28;20519;-62
2023/07/25 08:54:02;;;;;;;4.90;1.90;;;;;;;;;;5078041;28;20479;-62
2023/07/25 08:56:29;;;;;;;4.63;1.63;;;;;;;;;;5078295;28;20440;-62
2023/07/25 08:58:55;;;;;;;5.27;2.50;;;;;;;;;;5074369;28;20450;-62
2023/07/25 09:01:22;;;;;;;6.57;2.13;;;;;;;;;;5078507;28;21315;-62
2023/07/25 09:03:49;;;;;;;2.73;1.73;;;;;;;;;;5077186;28;20519;-62
2023/07/25 09:06:16;;;;;;;4.80;2.10;;;;;;;;;;5077088;28;20929;-61
2023/07/25 09:08:44;;;;;;;5.43;2.27;;;;;;;;;;5078078;28;20545;-61
2023/07/25 09:11:11;;;;;;;6.10;1.90;;;;;;;;;;5077887;28;20519;-61
2023/07/25 09:13:38;;;;;;;3.93;1.77;;;;;;;;;;5078198;28;20478;-62
2023/07/25 09:16:04;;;;;;;4.93;2.20;;;;;;;;;;5072339;28;20797;-62
2023/07/25 09:18:31;;;;;;;5.60;2.10;;;;;;;;;;5070685;28;20490;-61
2023/07/25 09:20:58;;;;;;;12.13;2.77;;;;;;;;;;5074515;28;20443;-62
2023/07/25 09:23:24;;;;;;;7.23;2.57;;;;;;;;;;5077674;28;20464;-61
2023/07/25 09:26:03;;;;;;;6.03;2.17;;;;;;;;;;5077296;28;20542;-62
2023/07/25 09:28:29;;;;;;;3.80;2.00;;;;;;;;;;5068368;28;20448;-61
2023/07/25 09:30:56;;;;;;;9.00;2.40;;;;;;;;;;5073463;28;20539;-62
2023/07/25 09:33:25;;;;;;;4.63;2.00;;;;;;;;;;5079446;28;20886;-61
2023/07/25 09:35:51;;;;;;;5.23;1.77;;;;;;;;;;5081367;28;20809;-62
2023/07/25 09:38:18;;;;;;;4.83;2.13;;;;;;;;;;5080581;28;20538;-62
2023/07/25 09:40:45;;;;;;;6.90;1.47;;;;;;;;;;5080995;28;20471;-62
2023/07/25 09:43:21;;;;;;;3.80;2.10;;;;;;;;;;5081272;28;20491;-62
2023/07/25 09:45:47;;;;;;;8.47;2.10;;;;;;;;;;5081383;28;20455;-62
2023/07/25 09:48:15;;;;;;;5.10;2.07;;;;;;;;;;5080745;28;20497;-62
2023/07/25 09:50:43;;;;;;;5.43;1.73;;;;;;;;;;5081611;28;20469;-62
2023/07/25 09:53:10;;;;;;;5.33;2.40;;;;;;;;;;5080695;28;20502;-62
2023/07/25 09:55:36;;;;;;;7.43;2.03;;;;;;;;;;5080840;28;21035;-62
2023/07/25 09:58:03;;;;;;;6.60;1.90;;;;;;;;;;5081245;28;20468;-62
2023/07/25 10:00:31;;;;;;;6.60;2.20;;;;;;;;;;5081404;28;20456;-62
2023/07/25 10:02:58;;;;;;;4.40;1.97;;;;;;;;;;5079944;28;20542;-62
2023/07/25 10:05:25;;;;;;;4.03;1.80;;;;;;;;;;5080544;28;20516;-62
2023/07/25 10:07:53;;;;;;;6.70;2.00;;;;;;;;;;5079012;28;20492;-62
2023/07/25 10:10:19;;;;;;;8.13;2.63;;;;;;;;;;5081761;28;20468;-62
2023/07/25 10:12:46;;;;;;;3.60;1.83;;;;;;;;;;5079158;28;20519;-62
2023/07/25 10:15:13;;;;;;;4.80;1.97;;;;;;;;;;5080274;28;20537;-62
2023/07/25 10:17:41;;;;;;;4.07;2.20;;;;;;;;;;5081640;28;20448;-62
2023/07/25 10:20:08;;;;;;;3.33;1.80;;;;;;;;;;5080652;28;20451;-62
2023/07/25 10:22:35;;;;;;;2.40;1.80;;;;;;;;;;5079797;28;20743;-62
2023/07/25 10:25:01;;;;;;;6.50;1.97;;;;;;;;;;5080940;28;20455;-62
2023/07/25 10:27:28;;;;;;;3.23;1.87;;;;;;;;;;5080432;28;20479;-62
2023/07/25 10:29:59;;;;;;;3.90;2.00;;;;;;;;;;5080248;28;20497;-62
2023/07/25 10:32:43;;;;;;;3.63;2.20;;;;;;;;;;5076051;28;20487;-62
2023/07/25 10:35:11;;;;;;;3.23;1.50;;;;;;;;;;5076495;28;20567;-62
2023/07/25 10:37:42;;;;;;;3.13;1.40;;;;;;;;;;5079079;28;20502;-62
2023/07/25 10:40:13;;;;;;;5.37;1.67;;;;;;;;;;5080603;28;20555;-62
2023/07/25 10:42:50;;;;;;;5.27;1.67;;;;;;;;;;5073262;28;20705;-62
2023/07/25 10:45:42;;;;;;;6.93;2.20;;;;;;;;;;5074652;28;20447;-62
2023/07/25 10:48:26;;;;;;;5.93;1.80;;;;;;;;;;5080209;28;20487;-62
2023/07/25 10:50:55;;;;;;;3.57;1.60;;;;;;;;;;5074581;28;20551;-63
2023/07/25 10:53:24;;;;;;;3.63;1.50;;;;;;;;;;5079551;28;21089;-62
2023/07/25 10:56:05;;;;;;;3.20;1.60;;;;;;;;;;5080123;28;20459;-62
2023/07/25 10:58:32;;;;;;;6.60;1.90;;;;;;;;;;5078969;28;20451;-62
2023/07/25 11:00:58;;;;;;;3.60;1.80;;;;;;;;;;5080644;28;20455;-62
2023/07/25 11:03:28;;;;;;;4.23;1.93;;;;;;;;;;5079597;28;20516;-62
2023/07/25 11:06:23;;;;;;;5.70;2.00;;;;;;;;;;5078736;28;21043;-62
2023/07/25 11:08:50;;;;;;;4.60;1.50;;;;;;;;;;5079660;28;20488;-62
2023/07/25 11:11:16;;;;;;;2.80;1.37;;;;;;;;;;5080390;28;20464;-62
2023/07/25 11:13:43;;;;;;;4.93;1.57;;;;;;;;;;5079023;28;20531;-62
2023/07/25 11:16:10;;;;;;;1.80;1.30;;;;;;;;;;5080374;28;20860;-62
2023/07/25 11:18:38;;;;;;;5.37;1.90;;;;;;;;;;5079842;28;21050;-63
2023/07/25 11:21:07;;;;;;;3.00;1.47;;;;;;;;;;5078638;28;20444;-62
2023/07/25 11:23:34;;;;;;;5.50;1.73;;;;;;;;;;5078443;28;20456;-62
2023/07/25 11:26:02;;;;;;;4.67;1.70;;;;;;;;;;5080094;28;20484;-62
2023/07/25 11:28:28;;;;;;;5.83;2.27;;;;;;;;;;5078574;28;20907;-62
2023/07/25 11:30:55;;;;;;;3.53;1.50;;;;;;;;;;5079711;28;20442;-62
2023/07/25 11:33:22;;;;;;;7.10;1.70;;;;;;;;;;5079801;28;20486;-62
2023/07/25 11:35:52;;;;;;;6.23;1.80;;;;;;;;;;5078297;28;20823;-62
2023/07/25 11:38:19;;;;;;;7.63;1.63;;;;;;;;;;5078413;28;20519;-62
2023/07/25 11:40:50;;;;;;;3.03;1.17;;;;;;;;;;5079126;28;20472;-62
2023/07/25 11:43:16;;;;;;;2.97;1.43;;;;;;;;;;5078626;28;20825;-62
2023/07/25 11:45:43;;;;;;;3.87;1.40;;;;;;;;;;5078565;28;20478;-62
2023/07/25 11:48:09;;;;;;;1.93;1.20;;;;;;;;;;5078704;28;20487;-62
2023/07/25 11:50:36;;;;;;;3.57;1.30;;;;;;;;;;5077980;28;20467;-61
2023/07/25 11:53:03;;;;;;;3.50;1.30;;;;;;;;;;5078395;28;20495;-62
2023/07/25 11:55:30;;;;;;;8.03;1.67;;;;;;;;;;5078184;28;21256;-62
2023/07/25 11:57:57;;;;;;;3.97;1.20;;;;;;;;;;5077822;28;20463;-62
2023/07/25 12:00:24;;;;;;;3.93;1.50;;;;;;;;;;5078711;28;20524;-61
2023/07/25 12:02:50;;;;;;;4.40;1.73;;;;;;;;;;5078336;28;20479;-62
2023/07/25 12:05:26;;;;;;;4.80;1.50;;;;;;;;;;5077270;28;20463;-62
2023/07/25 12:07:53;;;;;;;4.33;1.40;;;;;;;;;;5077221;28;20602;-62
2023/07/25 12:10:27;;;;;;;2.87;1.40;;;;;;;;;;5078782;28;20470;-62
2023/07/25 12:12:55;;;;;;;3.23;1.30;;;;;;;;;;5077749;28;20456;-62
2023/07/25 12:15:22;;;;;;;4.13;1.30;;;;;;;;;;5078431;28;20456;-62
2023/07/25 12:17:49;;;;;;;3.93;1.53;;;;;;;;;;5078235;28;20501;-63
2023/07/25 12:20:16;;;;;;;4.10;1.10;;;;;;;;;;5077898;28;20475;-63
2023/07/25 12:22:42;;;;;;;3.30;1.17;;;;;;;;;;5077385;28;20491;-63
2023/07/25 12:25:09;;;;;;;3.53;1.40;;;;;;;;;;5078163;28;20455;-63
2023/07/25 12:27:36;;;;;;;3.90;1.40;;;;;;;;;;5076849;28;20487;-62
2023/07/25 12:30:04;;;;;;;4.90;1.47;;;;;;;;;;5078422;28;20443;-62
2023/07/25 12:32:30;;;;;;;5.73;2.00;;;;;;;;;;5077759;28;20448;-62
2023/07/25 12:35:00;;;;;;;7.40;1.43;;;;;;;;;;5077164;28;20490;-62
2023/07/25 12:37:26;;;;;;;4.33;1.33;;;;;;;;;;5036375;28;1182591;-62
2023/07/25 12:39:53;;;;;;;5.43;1.57;;;;;;;;;;5079243;28;20288;-63
2023/07/25 12:42:19;;;;;;;2.77;1.30;;;;;;;;;;5078014;28;20501;-63
2023/07/25 12:44:46;;;;;;;3.33;1.37;;;;;;;;;;5078445;28;20979;-63
2023/07/25 12:47:13;;;;;;;2.40;1.43;;;;;;;;;;5078836;28;20515;-63
2023/07/25 12:49:40;;;;;;;7.87;1.50;;;;;;;;;;5078216;28;20472;-63
2023/07/25 12:52:07;;;;;;;4.53;1.67;;;;;;;;;;5078568;28;20479;-63
2023/07/25 12:54:34;;;;;;;2.63;1.33;;;;;;;;;;5078461;28;20540;-65
2023/07/25 12:57:01;;;;;;;8.07;1.90;;;;;;;;;;5078010;28;20480;-63
2023/07/25 12:59:27;;;;;;;5.10;1.73;;;;;;;;;;5078964;28;20448;-63
2023/07/25 13:01:53;;;;;;;4.40;1.80;;;;;;;;;;5078715;28;20475;-63
2023/07/25 13:04:21;;;;;;;3.80;1.87;;;;;;;;;;5077437;28;20450;-63
2023/07/25 13:06:48;;;;;;;3.50;1.33;;;;;;;;;;5077125;28;20965;-63
2023/07/25 13:09:14;;;;;;;5.77;1.77;;;;;;;;;;5082232;28;20471;-63
2023/07/25 13:11:40;;;;;;;6.33;1.40;;;;;;;;;;5081701;28;20478;-62
2023/07/25 13:14:07;;;;;;;4.40;1.40;;;;;;;;;;5082109;28;20516;-63
2023/07/25 13:16:34;;;;;;;5.23;1.50;;;;;;;;;;5082686;28;20467;-63
2023/07/25 13:19:00;;;;;;;4.47;1.10;;;;;;;;;;5074554;28;20473;-63
2023/07/25 13:21:28;;;;;;;2.20;1.30;;;;;;;;;;5081854;28;20479;-63
2023/07/25 13:23:54;;;;;;;3.77;1.40;;;;;;;;;;5082046;28;20991;-63
2023/07/25 13:26:20;;;;;;;4.53;1.20;;;;;;;;;;5081528;28;20543;-63
2023/07/25 13:28:47;;;;;;;4.33;1.57;;;;;;;;;;5081844;28;20518;-63
2023/07/25 13:31:13;;;;;;;2.57;1.50;;;;;;;;;;5082504;28;20436;-63
2023/07/25 13:33:40;;;;;;;2.97;1.67;;;;;;;;;;5081009;28;20483;-62
2023/07/25 13:36:06;;;;;;;2.83;1.33;;;;;;;;;;5081504;28;20519;-63
2023/07/25 13:38:34;;;;;;;7.40;1.40;;;;;;;;;;5081625;28;20525;-62
2023/07/25 13:41:00;;;;;;;4.00;1.30;;;;;;;;;;5075422;28;21352;-63
2023/07/25 13:43:27;;;;;;;7.03;1.90;;;;;;;;;;5081073;28;20480;-64
2023/07/25 13:45:53;;;;;;;3.23;1.63;;;;;;;;;;5081812;28;20486;-63
2023/07/25 13:48:20;;;;;;;3.37;1.73;;;;;;;;;;5081229;28;20479;-63
2023/07/25 13:50:47;;;;;;;4.53;1.90;;;;;;;;;;5081866;28;20455;-63
2023/07/25 13:53:13;;;;;;;6.10;1.80;;;;;;;;;;5081098;28;20451;-63
2023/07/25 13:55:41;;;;;;;5.20;1.40;;;;;;;;;;5080891;28;20487;-63
2023/07/25 13:58:07;;;;;;;2.90;1.20;;;;;;;;;;5081418;28;20472;-63
2023/07/25 14:00:34;;;;;;;4.33;1.27;;;;;;;;;;5081762;28;20502;-62
2023/07/25 14:03:00;;;;;;;4.00;1.30;;;;;;;;;;5080789;28;20520;-63
2023/07/25 14:05:26;;;;;;;5.70;1.60;;;;;;;;;;5080842;28;20478;-62
2023/07/25 14:07:53;;;;;;;6.53;1.37;;;;;;;;;;5080466;28;20547;-63
2023/07/25 14:10:19;;;;;;;3.63;1.53;;;;;;;;;;5081907;28;20482;-63
2023/07/25 14:12:47;;;;;;;4.90;1.30;;;;;;;;;;5081665;28;20471;-63
2023/07/25 14:15:13;;;;;;;3.60;1.77;;;;;;;;;;5081862;28;20467;-63
2023/07/25 14:17:40;;;;;;;2.00;1.10;;;;;;;;;;5082680;28;20486;-64
2023/07/25 14:20:07;;;;;;;4.43;1.37;;;;;;;;;;5081798;28;20483;-63
2023/07/25 14:22:34;;;;;;;2.70;0.97;;;;;;;;;;5081634;28;21012;-63
2023/07/25 14:25:00;;;;;;;3.20;1.47;;;;;;;;;;5080681;28;20479;-64
2023/07/25 14:27:27;;;;;;;3.27;1.50;;;;;;;;;;5076207;28;20467;-63
2023/07/25 14:29:55;;;;;;;3.60;1.27;;;;;;;;;;5082006;28;20458;-63
2023/07/25 14:32:21;;;;;;;3.83;1.20;;;;;;;;;;5082158;28;20819;-63
2023/07/25 14:34:50;;;;;;;3.40;1.27;;;;;;;;;;5081004;28;20492;-63
2023/07/25 14:37:16;;;;;;;2.90;1.00;;;;;;;;;;5080935;28;21057;-63
2023/07/25 14:39:42;;;;;;;2.23;1.23;;;;;;;;;;5082474;28;20478;-63